Breydel — OROS — position and weather

sailwx.info

Track history (hours):
 
Tides and Currents Weather Stations Pressure Air Temp Water Temp Dewpoint Dewpoint Depression Visibility Wind Speed Wind Dir Waves Ship Positions

Breydel

Last reported at 2018-Jun-13 04:55 UTC. Time now 2018-Jun-25 14:17 UTC.
Position N 36°56' E 024°02'.
Warning: this ship's position is 12 days out of date.

Length 127 m; draft 5.5 m.

Type: Other ship. MMSI: 205520000.

Date/timePositionNaut miles runAvg speedWind from/ knotsBaromVisibWave heightAir tempDewpointWater temp
2018-Jun-13 04:55N 36°56' E 024°02'6 9.0
2018-Jun-13 04:13N 37°02' E 024°04'2 9.0
2018-Jun-13 03:59N 37°04' E 024°05'179 8.8
2018-Jun-12 07:43N 39°47' E 025°37'4 8.7
2018-Jun-12 07:19N 39°49' E 025°40'4 8.7
2018-Jun-12 06:50N 39°52' E 025°44'18 8.8
2018-Jun-12 04:46N 40°01' E 026°05'3 9.5
2018-Jun-12 04:26N 40°02' E 026°09'  
2018-Jun-09 22:08N 40°58' E 028°55'0 0.0
2018-Jun-09 21:59N 40°58' E 028°55'0 0.0
2018-Jun-09 21:11N 40°58' E 028°55'0 0.0
2018-Jun-09 15:41N 40°58' E 028°55'0 0.1
2018-Jun-09 15:29N 40°58' E 028°55'4 0.4
2018-Jun-09 06:09N 40°55' E 028°59'13 1.4
2018-Jun-08 20:47N 40°50' E 029°15'4 1.8
2018-Jun-08 18:31N 40°48' E 029°10'0 2.3
2018-Jun-08 18:25N 40°47' E 029°10'1 1.4
2018-Jun-08 17:59N 40°47' E 029°11'0 0.9
2018-Jun-08 17:25N 40°47' E 029°11'  
Track history (hours):
 
Tides and Currents Weather Stations Pressure Air Temp Water Temp Dewpoint Dewpoint Depression Visibility Wind Speed Wind Dir Waves Ship Positions

Breydel

Last reported at 2018-Jun-13 04:55 UTC. Time now 2018-Jun-25 14:17 UTC.
Position N 36°56' E 024°02'.
Warning: this ship's position is 12 days out of date.

Length 127 m; draft 5.5 m.

Type: Other ship. MMSI: 205520000.

Date/timePositionNaut miles runAvg speedWind from/ knotsBaromVisibWave heightAir tempDewpointWater temp
2018-Jun-13 04:55N 36°56' E 024°02'6 9.0
2018-Jun-13 04:13N 37°02' E 024°04'2 9.0
2018-Jun-13 03:59N 37°04' E 024°05'179 8.8
2018-Jun-12 07:43N 39°47' E 025°37'4 8.7
2018-Jun-12 07:19N 39°49' E 025°40'4 8.7
2018-Jun-12 06:50N 39°52' E 025°44'18 8.8
2018-Jun-12 04:46N 40°01' E 026°05'3 9.5
2018-Jun-12 04:26N 40°02' E 026°09'  
2018-Jun-09 22:08N 40°58' E 028°55'0 0.0
2018-Jun-09 21:59N 40°58' E 028°55'0 0.0
2018-Jun-09 21:11N 40°58' E 028°55'0 0.0
2018-Jun-09 15:41N 40°58' E 028°55'0 0.1
2018-Jun-09 15:29N 40°58' E 028°55'4 0.4
2018-Jun-09 06:09N 40°55' E 028°59'13 1.4
2018-Jun-08 20:47N 40°50' E 029°15'4 1.8
2018-Jun-08 18:31N 40°48' E 029°10'0 2.3
2018-Jun-08 18:25N 40°47' E 029°10'1 1.4
2018-Jun-08 17:59N 40°47' E 029°11'0 0.9
2018-Jun-08 17:25N 40°47' E 029°11'  

Dump ship's entire track history